Time;durP1;ratioP1;P1;durP2;ratioP2;P2;SDS_P1;SDS_P2;PMS_P1;PMS_P2;Temp;Humidity;BMP_temperature;BMP_pressure;BME280_temperature;BME280_humidity;BME280_pressure;Samples;Min_cycle;Max_cycle;Signal;HPM_P1;HPM_P2
2021/12/22 00:00:11;;;;;;;83.13;19.33;;;-3.00;5.40;;;;;;5064202;28;20213;-58
2021/12/22 00:02:46;;;;;;;142.87;18.73;;;-2.90;99.90;;;;;;5059763;28;20283;-59
2021/12/22 00:05:16;;;;;;;78.70;18.97;;;-2.70;1.00;;;;;;5057870;28;20332;-58
2021/12/22 00:07:45;;;;;;;104.83;18.97;;;-2.80;1.00;;;;;;5078295;28;20549;-58
2021/12/22 00:10:13;;;;;;;149.50;18.70;;;-2.80;1.00;;;;;;5093902;28;20245;-58
2021/12/22 00:12:40;;;;;;;67.30;17.33;;;-2.80;1.00;;;;;;5076885;28;20301;-58
2021/12/22 00:15:08;;;;;;;73.10;18.37;;;-2.80;1.00;;;;;;5077902;28;20236;-58
2021/12/22 00:17:37;;;;;;;83.77;16.73;;;-2.70;1.00;;;;;;5078538;28;20198;-58
2021/12/22 00:20:06;;;;;;;89.87;16.67;;;-2.90;1.00;;;;;;5078404;28;20232;-58
2021/12/22 00:22:33;;;;;;;106.57;16.60;;;-2.90;1.00;;;;;;5078669;28;20274;-58
2021/12/22 00:25:00;;;;;;;104.23;16.93;;;-2.90;1.00;;;;;;5080781;28;20659;-58
2021/12/22 00:27:27;;;;;;;98.00;16.53;;;-3.00;1.00;;;;;;5079457;28;20321;-59
2021/12/22 00:29:54;;;;;;;102.43;16.27;;;-3.10;1.00;;;;;;5077774;28;20329;-59
2021/12/22 00:32:22;;;;;;;33.00;15.07;;;-3.10;1.00;;;;;;5080060;28;20222;-58
2021/12/22 00:34:53;;;;;;;79.53;17.37;;;-2.90;56.40;;;;;;5079505;28;20273;-58
2021/12/22 00:37:29;;;;;;;90.53;16.77;;;-2.80;99.90;;;;;;5079381;28;20182;-58
2021/12/22 00:39:57;;;;;;;111.67;16.83;;;-2.90;1.00;;;;;;5077941;28;20206;-58
2021/12/22 00:42:24;;;;;;;65.27;15.47;;;-3.00;1.00;;;;;;5077679;28;20202;-58
2021/12/22 00:44:54;;;;;;;48.33;13.83;;;-3.00;1.00;;;;;;5075176;28;20202;-59
2021/12/22 00:47:24;;;;;;;81.07;18.67;;;-3.10;1.00;;;;;;5063129;28;20274;-58
2021/12/22 00:49:52;;;;;;;82.63;15.13;;;-3.20;99.90;;;;;;5075765;28;20561;-58
2021/12/22 00:52:19;;;;;;;120.13;17.33;;;-3.20;99.90;;;;;;5076150;28;20552;-59
2021/12/22 00:54:46;;;;;;;104.33;16.03;;;-3.20;1.00;;;;;;5078532;28;20361;-58
2021/12/22 00:57:16;;;;;;;91.23;16.50;;;-3.30;99.90;;;;;;5080554;28;20474;-59
2021/12/22 00:59:44;;;;;;;49.00;15.47;;;-3.30;99.90;;;;;;5078759;28;20607;-58
2021/12/22 01:02:14;;;;;;;64.70;14.73;;;-3.30;99.90;;;;;;5093132;28;20332;-58
2021/12/22 01:04:41;;;;;;;80.53;16.87;;;-3.30;99.90;;;;;;5075840;28;20191;-58
2021/12/22 01:07:09;;;;;;;118.67;16.50;;;-3.30;1.00;;;;;;5079034;28;20198;-58
2021/12/22 01:09:36;;;;;;;78.57;14.73;;;-3.40;1.00;;;;;;5092940;28;20230;-58
2021/12/22 01:12:05;;;;;;;119.83;16.90;;;-3.40;99.90;;;;;;5078234;28;20190;-58
2021/12/22 01:14:33;;;;;;;90.00;17.17;;;-3.50;99.90;;;;;;5076332;28;20206;-58
2021/12/22 01:17:02;;;;;;;146.07;17.53;;;-3.40;99.90;;;;;;5076313;28;20195;-58
2021/12/22 01:19:48;;;;;;;43.47;14.73;;;-3.40;99.90;;;;;;5075954;28;20202;-59
2021/12/22 01:22:47;;;;;;;152.47;17.73;;;-3.40;96.80;;;;;;5077356;28;20571;-58
2021/12/22 01:25:18;;;;;;;63.17;14.23;;;-3.40;1.00;;;;;;5080937;28;20210;-58
2021/12/22 01:27:46;;;;;;;104.83;16.77;;;-3.40;1.00;;;;;;5078180;28;20674;-59
2021/12/22 01:30:23;;;;;;;141.17;17.67;;;-3.50;1.00;;;;;;5080732;28;20310;-58
2021/12/22 01:32:53;;;;;;;61.40;15.67;;;-3.40;1.00;;;;;;5077398;28;20631;-59
2021/12/22 01:35:23;;;;;;;73.13;16.50;;;-3.30;1.00;;;;;;5082124;28;20494;-59
2021/12/22 01:37:50;;;;;;;70.53;15.93;;;-3.30;1.00;;;;;;5077880;28;20189;-59
2021/12/22 01:40:19;;;;;;;61.60;16.20;;;-3.30;1.00;;;;;;5078401;28;21151;-58
2021/12/22 01:42:47;;;;;;;56.57;15.53;;;-3.30;1.00;;;;;;5077664;28;20198;-58
2021/12/22 01:45:36;;;;;;;56.87;15.23;;;-3.30;1.00;;;;;;5076154;28;20194;-58
2021/12/22 01:50:53;;;;;;;57.87;17.37;;;-3.40;1.00;;;;;;5075372;28;20212;-58
2021/12/22 01:53:23;;;;;;;57.70;17.20;;;-3.20;1.00;;;;;;5087411;28;20242;-58
2021/12/22 01:56:04;;;;;;;87.03;16.30;;;-3.20;1.00;;;;;;5092737;28;20749;-58
2021/12/22 01:58:36;;;;;;;119.80;18.80;;;-3.20;1.00;;;;;;5076387;28;20194;-58
2021/12/22 02:01:06;;;;;;;79.70;16.47;;;-3.30;99.90;;;;;;5068464;28;20281;-58
2021/12/22 02:03:33;;;;;;;44.57;15.40;;;-3.40;99.90;;;;;;5089370;28;20202;-58
2021/12/22 02:06:03;;;;;;;104.97;16.30;;;-3.30;99.90;;;;;;5075007;28;20661;-59
2021/12/22 02:08:29;;;;;;;213.13;18.90;;;-3.40;54.20;;;;;;5076373;28;20198;-59
2021/12/22 02:10:57;;;;;;;57.03;16.73;;;-3.40;1.00;;;;;;5075962;28;20954;-58
2021/12/22 02:13:29;;;;;;;242.33;17.97;;;-3.40;1.00;;;;;;5075704;28;20256;-58
2021/12/22 02:16:05;;;;;;;102.80;16.87;;;-3.50;1.00;;;;;;5074375;28;20190;-58
2021/12/22 02:18:38;;;;;;;101.93;18.27;;;-3.60;1.00;;;;;;5069671;28;20716;-58
2021/12/22 02:21:06;;;;;;;96.97;18.13;;;-3.50;1.00;;;;;;5075040;28;20217;-58
2021/12/22 02:23:34;;;;;;;54.53;17.20;;;-3.50;1.00;;;;;;5074293;28;20206;-58
2021/12/22 02:26:10;;;;;;;136.37;18.27;;;-3.50;1.00;;;;;;5095133;28;20213;-58
2021/12/22 02:28:41;;;;;;;73.20;16.73;;;-3.50;1.00;;;;;;5082699;28;20273;-58
2021/12/22 02:31:13;;;;;;;76.63;15.47;;;-3.40;1.00;;;;;;5083032;28;20312;-58
2021/12/22 02:33:46;;;;;;;100.93;16.77;;;-3.30;1.00;;;;;;5080520;28;20297;-59
2021/12/22 02:38:47;;;;;;;215.43;17.20;;;-3.40;1.00;;;;;;5082625;28;20575;-59
2021/12/22 02:41:20;;;;;;;175.33;15.93;;;-3.60;1.00;;;;;;5101198;28;20197;-58
2021/12/22 02:43:48;;;;;;;143.27;20.43;;;-3.70;99.90;;;;;;5083619;28;20302;-58
2021/12/22 02:46:18;;;;;;;46.67;13.97;;;-3.80;99.90;;;;;;5083371;28;20291;-59
2021/12/22 02:48:47;;;;;;;123.93;18.43;;;-3.70;99.90;;;;;;5084677;28;20196;-58
2021/12/22 02:51:19;;;;;;;101.73;16.73;;;-3.80;99.90;;;;;;5085087;28;20205;-59
2021/12/22 02:54:01;;;;;;;201.13;17.07;;;-3.70;99.90;;;;;;5099764;28;20264;-58
2021/12/22 03:04:13;;;;;;;99.80;15.53;;;-3.70;1.00;;;;;;5084753;28;20308;-58
2021/12/22 03:06:50;;;;;;;94.03;15.80;;;-3.70;99.90;;;;;;5081472;28;20195;-58
2021/12/22 03:09:25;;;;;;;133.33;16.07;;;-3.80;99.90;;;;;;5069265;28;20194;-58
2021/12/22 03:11:54;;;;;;;64.20;17.33;;;-3.90;99.90;;;;;;5067567;28;20205;-58
2021/12/22 03:14:22;;;;;;;71.33;15.93;;;-3.80;99.90;;;;;;5082304;28;20250;-59
2021/12/22 03:16:50;;;;;;;152.73;16.97;;;-3.80;99.90;;;;;;5080098;28;20245;-58
2021/12/22 03:19:23;;;;;;;83.30;15.60;;;-3.90;99.90;;;;;;5085456;28;20671;-58
2021/12/22 03:21:58;;;;;;;70.87;16.30;;;-4.00;99.90;;;;;;5083325;28;20646;-59
2021/12/22 03:24:26;;;;;;;169.03;18.23;;;-4.00;99.90;;;;;;5099305;28;20649;-58
2021/12/22 03:26:53;;;;;;;132.53;15.77;;;-4.00;1.00;;;;;;5083315;28;20287;-58
2021/12/22 03:29:21;;;;;;;97.87;15.43;;;-4.10;1.00;;;;;;5082896;28;20227;-58
2021/12/22 03:31:48;;;;;;;95.13;14.63;;;-4.00;1.00;;;;;;5081668;28;21174;-59
2021/12/22 03:34:15;;;;;;;59.57;15.87;;;-4.10;1.00;;;;;;5084793;28;20206;-58
2021/12/22 03:36:43;;;;;;;72.30;14.97;;;-4.10;1.00;;;;;;5097639;28;20621;-58
2021/12/22 03:39:12;;;;;;;37.20;14.13;;;-4.10;1.00;;;;;;5074940;28;20301;-59
2021/12/22 03:41:40;;;;;;;115.63;16.17;;;-4.00;1.00;;;;;;5081671;28;20297;-59
2021/12/22 03:44:11;;;;;;;86.90;15.80;;;-4.10;1.00;;;;;;5082628;28;20325;-59
2021/12/22 03:46:38;;;;;;;125.30;16.43;;;-4.10;1.00;;;;;;5082866;28;20218;-59
2021/12/22 03:49:08;;;;;;;50.10;14.97;;;-4.10;1.00;;;;;;5083536;28;20204;-59
2021/12/22 03:51:36;;;;;;;27.27;14.33;;;-4.10;1.00;;;;;;5082834;28;20250;-59
2021/12/22 03:54:05;;;;;;;64.73;15.27;;;-4.00;1.00;;;;;;5083173;28;20565;-59
2021/12/22 03:56:32;;;;;;;43.63;13.90;;;-4.00;1.00;;;;;;5082645;28;20608;-59
2021/12/22 03:58:59;;;;;;;125.23;16.40;;;-2.70;1.00;;;;;;5079703;28;20202;-59
2021/12/22 04:01:27;;;;;;;35.10;13.73;;;-4.10;1.00;;;;;;5100460;28;20194;-59
2021/12/22 04:03:58;;;;;;;42.80;13.43;;;-4.10;1.00;;;;;;5098437;28;20670;-58
2021/12/22 04:06:25;;;;;;;73.60;15.00;;;-4.10;1.00;;;;;;5082795;28;20226;-59
2021/12/22 04:08:52;;;;;;;68.80;13.67;;;-4.00;1.00;;;;;;5082992;28;20267;-59
2021/12/22 04:11:19;;;;;;;32.67;13.70;;;-4.10;1.00;;;;;;5087751;28;20247;-59
2021/12/22 04:13:46;;;;;;;182.30;17.83;;;-4.10;1.00;;;;;;5076332;28;20209;-58
2021/12/22 04:16:13;;;;;;;109.73;16.07;;;-4.20;99.90;;;;;;5062991;28;21903;-59
2021/12/22 04:18:40;;;;;;;49.33;14.00;;;-4.20;99.90;;;;;;5069213;28;21398;-59
2021/12/22 04:21:08;;;;;;;30.03;14.53;;;-4.20;99.90;;;;;;5079159;28;20247;-59
2021/12/22 04:23:35;;;;;;;125.07;15.30;;;-4.20;99.90;;;;;;5083215;28;20281;-59
2021/12/22 04:26:04;;;;;;;63.63;15.40;;;-4.20;99.90;;;;;;5082640;28;20178;-58
2021/12/22 04:28:31;;;;;;;230.77;20.23;;;-4.30;99.90;;;;;;5084427;28;20198;-58
2021/12/22 04:30:58;;;;;;;139.07;16.50;;;-4.30;59.50;;;;;;5083941;28;20222;-58
2021/12/22 04:33:25;;;;;;;84.70;15.67;;;-4.30;55.30;;;;;;5080192;28;20658;-59
2021/12/22 04:35:53;;;;;;;142.53;17.83;;;-4.30;44.20;;;;;;5081964;28;20252;-58
2021/12/22 04:38:21;;;;;;;157.63;18.30;;;-4.30;1.00;;;;;;5083827;28;20851;-58
2021/12/22 04:40:48;;;;;;;86.37;15.67;;;-4.30;1.00;;;;;;5079889;28;20199;-59
2021/12/22 04:43:15;;;;;;;100.57;15.67;;;-4.30;1.00;;;;;;5083219;28;20220;-59
2021/12/22 04:45:42;;;;;;;215.77;19.37;;;-4.20;1.00;;;;;;5081096;28;20283;-58
2021/12/22 04:48:10;;;;;;;96.57;17.00;;;-4.20;1.00;;;;;;5081630;28;20221;-59
2021/12/22 04:50:37;;;;;;;60.43;17.53;;;-4.20;1.00;;;;;;5078770;28;20230;-59
2021/12/22 04:53:16;;;;;;;75.97;16.67;;;-4.20;1.00;;;;;;5082281;28;20198;-59
2021/12/22 04:55:43;;;;;;;50.77;16.87;;;-4.10;1.00;;;;;;5078755;28;20240;-59
2021/12/22 04:58:10;;;;;;;159.23;17.57;;;-4.10;1.00;;;;;;5099028;28;20288;-59
2021/12/22 05:00:39;;;;;;;101.10;16.33;;;-4.00;1.00;;;;;;5077377;28;20738;-59
2021/12/22 05:03:07;;;;;;;48.97;16.63;;;-4.10;1.00;;;;;;5080793;28;20201;-58
2021/12/22 05:05:34;;;;;;;147.43;18.70;;;-4.10;1.00;;;;;;5080345;28;20241;-58
2021/12/22 05:08:01;;;;;;;142.87;17.87;;;-4.20;1.00;;;;;;5075550;28;20604;-58
2021/12/22 05:10:29;;;;;;;117.17;16.33;;;-4.20;1.00;;;;;;5082236;28;20213;-58
2021/12/22 05:12:56;;;;;;;215.03;17.33;;;-4.20;1.00;;;;;;5081128;28;20595;-58
2021/12/22 05:15:27;;;;;;;59.70;13.90;;;-4.30;1.00;;;;;;5081359;28;20230;-58
2021/12/22 05:20:21;;;;;;;211.00;15.70;;;-4.30;1.00;;;;;;5081872;28;20217;-58
2021/12/22 05:22:48;;;;;;;59.50;14.67;;;-4.40;99.90;;;;;;5080087;28;20281;-59
2021/12/22 05:25:16;;;;;;;128.20;14.20;;;-4.50;99.90;;;;;;5082182;28;20276;-58
2021/12/22 05:27:43;;;;;;;104.67;13.50;;;-4.40;99.90;;;;;;5082849;28;20615;-58
2021/12/22 05:30:11;;;;;;;187.03;16.17;;;-4.50;99.90;;;;;;5081280;28;20253;-59
2021/12/22 05:32:40;;;;;;;186.17;16.73;;;-4.50;99.90;;;;;;5083364;28;20670;-58
2021/12/22 05:35:10;;;;;;;150.90;14.80;;;-4.50;99.90;;;;;;5082988;28;20454;-58
2021/12/22 05:37:38;;;;;;;100.30;15.53;;;-4.60;99.90;;;;;;5081512;28;20687;-58
2021/12/22 05:40:07;;;;;;;318.73;18.90;;;-4.50;1.00;;;;;;5078933;28;20223;-59
2021/12/22 05:42:34;;;;;;;151.93;15.40;;;-4.50;1.00;;;;;;5082721;28;20636;-58
2021/12/22 05:45:02;;;;;;;170.23;16.33;;;-4.50;1.00;;;;;;5080608;28;20190;-58
2021/12/22 05:47:29;;;;;;;161.03;16.37;;;-4.40;1.00;;;;;;5084547;28;20244;-58
2021/12/22 05:49:56;;;;;;;119.70;15.03;;;-4.40;1.00;;;;;;5082706;28;20646;-58
2021/12/22 05:52:23;;;;;;;133.77;15.43;;;-4.50;1.00;;;;;;5089983;28;20311;-60
2021/12/22 05:54:50;;;;;;;168.93;16.57;;;-4.50;1.00;;;;;;5077342;28;20203;-58
2021/12/22 05:57:17;;;;;;;117.87;13.60;;;-4.50;1.00;;;;;;5084265;28;20194;-58
2021/12/22 05:59:44;;;;;;;128.03;14.57;;;-4.70;99.90;;;;;;5085526;28;20190;-60
2021/12/22 06:02:13;;;;;;;75.53;13.43;;;-4.70;1.00;;;;;;5103203;28;20222;-59
2021/12/22 06:04:41;;;;;;;85.83;14.47;;;-4.60;1.00;;;;;;5083193;28;20216;-58
2021/12/22 06:07:08;;;;;;;58.07;13.93;;;-4.60;1.00;;;;;;5091733;28;20566;-59
2021/12/22 06:09:35;;;;;;;49.67;12.80;;;-4.60;1.00;;;;;;5085092;28;20227;-58
2021/12/22 06:12:02;;;;;;;46.23;12.60;;;-4.70;1.00;;;;;;5086334;28;20202;-58
2021/12/22 06:14:29;;;;;;;19.50;12.00;;;-4.80;1.00;;;;;;5083156;28;20226;-59
2021/12/22 06:16:56;;;;;;;32.57;12.83;;;-4.90;1.00;;;;;;5087325;28;20214;-58
2021/12/22 06:19:23;;;;;;;80.03;13.77;;;-4.80;1.00;;;;;;5083352;28;20784;-58
2021/12/22 06:21:50;;;;;;;36.77;13.70;;;-4.80;99.90;;;;;;5070839;28;20319;-58
2021/12/22 06:24:17;;;;;;;41.13;12.73;;;-4.90;99.90;;;;;;5086174;28;20198;-58
2021/12/22 06:26:44;;;;;;;77.83;14.20;;;-4.90;99.90;;;;;;5071504;28;20615;-58
2021/12/22 06:29:12;;;;;;;71.47;14.13;;;-4.90;99.90;;;;;;5071356;28;20206;-59
2021/12/22 06:31:39;;;;;;;59.40;13.03;;;-4.90;99.90;;;;;;5083869;28;20198;-59
2021/12/22 06:34:12;;;;;;;58.83;13.07;;;-4.90;99.90;;;;;;5101119;28;20299;-58
2021/12/22 06:36:39;;;;;;;49.33;12.83;;;-4.90;99.90;;;;;;5086360;28;20198;-58
2021/12/22 06:39:09;;;;;;;33.20;11.77;;;-5.00;99.90;;;;;;5083949;28;20182;-58
2021/12/22 06:41:36;;;;;;;23.60;11.93;;;-5.00;99.90;;;;;;5083243;28;20281;-58
2021/12/22 06:44:05;;;;;;;75.90;12.73;;;-5.00;99.90;;;;;;5082771;28;20194;-58
2021/12/22 06:46:33;;;;;;;17.00;11.47;;;-4.90;99.90;;;;;;5085278;28;20202;-58
2021/12/22 06:49:00;;;;;;;29.27;11.93;;;-5.00;99.90;;;;;;5082479;28;20766;-59
2021/12/22 06:51:27;;;;;;;22.67;11.70;;;-5.00;99.90;;;;;;5083636;28;20283;-59
2021/12/22 06:53:59;;;;;;;19.53;12.43;;;-5.10;95.50;;;;;;5083307;28;20218;-58
2021/12/22 06:56:26;;;;;;;17.17;12.70;;;-5.10;64.70;;;;;;5081555;28;20666;-58
2021/12/22 06:58:54;;;;;;;96.70;15.70;;;-5.10;21.10;;;;;;5085594;28;20206;-59
2021/12/22 07:01:22;;;;;;;37.73;11.80;;;-5.20;62.40;;;;;;5085173;28;20677;-58
2021/12/22 07:03:50;;;;;;;42.43;13.83;;;-5.10;80.40;;;;;;5083556;28;20222;-59
2021/12/22 07:06:17;;;;;;;38.07;11.73;;;-5.10;62.00;;;;;;5086277;28;20213;-58
2021/12/22 07:08:44;;;;;;;46.90;13.17;;;-5.10;92.10;;;;;;5081012;28;20750;-58
2021/12/22 07:11:12;;;;;;;35.27;12.50;;;-5.10;96.30;;;;;;5086010;28;20194;-58
2021/12/22 07:13:39;;;;;;;35.17;13.20;;;-5.10;27.30;;;;;;5085470;28;20229;-60
2021/12/22 07:16:07;;;;;;;25.70;12.67;;;-5.10;84.80;;;;;;5099663;28;20243;-59
2021/12/22 07:18:34;;;;;;;70.23;13.90;;;-5.10;48.30;;;;;;5085804;28;20602;-60
2021/12/22 07:21:02;;;;;;;18.40;12.30;;;-5.10;35.60;;;;;;5082876;28;20300;-58
2021/12/22 07:23:29;;;;;;;16.70;11.93;;;-5.10;37.20;;;;;;5101570;28;20223;-59
2021/12/22 07:25:56;;;;;;;16.17;11.93;;;-5.10;26.00;;;;;;5082305;28;20611;-58
2021/12/22 07:28:23;;;;;;;15.83;11.23;;;-5.10;11.80;;;;;;5086649;28;20190;-58
2021/12/22 07:30:50;;;;;;;16.53;12.07;;;-5.10;1.00;;;;;;5078889;28;20226;-58
2021/12/22 07:33:18;;;;;;;15.67;11.17;;;-5.10;1.00;;;;;;5076939;28;20194;-59
2021/12/22 07:35:59;;;;;;;15.87;11.00;;;-5.20;1.00;;;;;;5081234;28;20194;-59
2021/12/22 07:38:40;;;;;;;16.43;11.33;;;-5.10;1.00;;;;;;5083852;28;20723;-58
2021/12/22 07:41:09;;;;;;;15.47;10.50;;;-5.20;1.00;;;;;;5080746;28;20190;-60
2021/12/22 07:43:36;;;;;;;14.40;10.40;;;-5.20;1.00;;;;;;5079739;28;20217;-60
2021/12/22 07:46:04;;;;;;;15.47;10.27;;;-5.20;1.00;;;;;;5081388;28;20201;-59
2021/12/22 07:48:31;;;;;;;17.07;10.77;;;-5.10;1.00;;;;;;5080840;28;20198;-59
2021/12/22 07:50:59;;;;;;;17.07;11.23;;;-5.10;1.00;;;;;;5082565;28;20205;-59
2021/12/22 07:53:26;;;;;;;15.87;10.97;;;-5.00;1.00;;;;;;5074377;28;20271;-59
2021/12/22 07:55:53;;;;;;;15.93;10.77;;;-5.00;1.00;;;;;;5078562;28;20225;-60
2021/12/22 07:58:22;;;;;;;17.63;10.90;;;-4.90;1.00;;;;;;5081498;28;20549;-59
2021/12/22 08:00:49;;;;;;;18.67;12.27;;;-4.90;1.00;;;;;;5083604;28;20187;-59
2021/12/22 08:03:17;;;;;;;14.43;10.37;;;-4.90;1.00;;;;;;5080896;28;20201;-59
2021/12/22 08:06:04;;;;;;;14.43;9.53;;;-4.90;1.00;;;;;;5098466;28;20278;-60
2021/12/22 08:08:31;;;;;;;14.80;10.23;;;-4.80;1.00;;;;;;5096514;28;20206;-59
2021/12/22 08:10:58;;;;;;;16.00;10.80;;;-4.80;99.90;;;;;;5081143;28;20197;-59
2021/12/22 08:13:25;;;;;;;15.73;11.10;;;-4.80;99.90;;;;;;5079082;28;20287;-59
2021/12/22 08:15:52;;;;;;;17.10;11.97;;;-4.80;99.90;;;;;;5080335;28;20238;-59
2021/12/22 08:18:20;;;;;;;19.53;13.23;;;-4.70;99.90;;;;;;5086011;28;20728;-59
2021/12/22 08:20:47;;;;;;;17.50;12.60;;;-4.70;99.90;;;;;;5081095;28;20234;-59
2021/12/22 08:23:18;;;;;;;17.97;11.67;;;-4.60;99.90;;;;;;5082388;28;20288;-59
2021/12/22 08:25:46;;;;;;;15.47;10.97;;;-4.60;99.90;;;;;;5082431;28;20226;-60
2021/12/22 08:28:14;;;;;;;19.10;11.33;;;-4.50;99.90;;;;;;5078013;28;20282;-58
2021/12/22 08:30:41;;;;;;;16.77;11.00;;;-4.50;21.40;;;;;;5082629;28;20239;-59
2021/12/22 08:33:30;;;;;;;15.53;10.30;;;-4.40;1.00;;;;;;5072786;28;20190;-59
2021/12/22 08:38:56;;;;;;;13.20;10.00;;;-4.30;1.00;;;;;;5066415;28;20206;-59
2021/12/22 08:41:28;;;;;;;11.97;9.33;;;-4.30;1.00;;;;;;5050709;28;20216;-59
2021/12/22 08:43:58;;;;;;;14.77;10.50;;;-4.30;1.00;;;;;;5074750;28;20198;-59
2021/12/22 08:46:26;;;;;;;14.87;10.40;;;-4.30;1.00;;;;;;5084022;28;20206;-59
2021/12/22 08:48:55;;;;;;;12.60;9.57;;;-4.10;1.00;;;;;;5100833;28;20205;-59
2021/12/22 08:51:22;;;;;;;15.70;10.57;;;-3.90;1.00;;;;;;5083369;28;20202;-60
2021/12/22 08:53:49;;;;;;;17.50;10.23;;;-3.80;1.00;;;;;;5083500;28;20186;-59
2021/12/22 08:56:16;;;;;;;14.27;9.37;;;-3.70;1.00;;;;;;5082186;28;20218;-59
2021/12/22 08:58:43;;;;;;;14.87;10.07;;;-3.60;1.00;;;;;;5084639;28;20190;-59
2021/12/22 09:01:11;;;;;;;12.20;9.57;;;-3.40;1.00;;;;;;5081450;28;20272;-59
2021/12/22 09:03:38;;;;;;;10.70;8.90;;;-3.20;1.00;;;;;;5075281;28;20194;-59
2021/12/22 09:06:05;;;;;;;9.93;7.93;;;-3.20;99.90;;;;;;5059692;28;20669;-59
2021/12/22 09:08:33;;;;;;;11.00;8.40;;;-3.10;99.90;;;;;;5079743;28;20645;-59
2021/12/22 09:11:00;;;;;;;11.57;8.90;;;-2.90;99.90;;;;;;5077803;28;20222;-59
2021/12/22 09:13:27;;;;;;;12.43;9.17;;;-2.90;99.90;;;;;;5083077;28;20228;-59
2021/12/22 09:15:54;;;;;;;11.50;8.10;;;-2.60;99.90;;;;;;5083197;28;20206;-59
2021/12/22 09:18:21;;;;;;;13.67;9.53;;;-2.40;99.90;;;;;;5075014;28;20580;-59
2021/12/22 09:20:48;;;;;;;11.03;8.40;;;-2.10;24.20;;;;;;5081715;28;20275;-59
2021/12/22 09:23:15;;;;;;;11.07;8.53;;;0.20;1.00;;;;;;5081394;28;20201;-60
2021/12/22 09:25:42;;;;;;;8.63;7.10;;;2.70;1.00;;;;;;5065656;28;20199;-60
2021/12/22 09:28:12;;;;;;;8.87;6.17;;;4.20;1.00;;;;;;5081874;28;20281;-59
2021/12/22 09:30:41;;;;;;;7.23;6.10;;;5.50;99.90;;;;;;5084583;28;20226;-58
2021/12/22 09:33:11;;;;;;;10.10;6.30;;;5.80;99.90;;;;;;5084020;28;20670;-58
2021/12/22 09:35:38;;;;;;;9.03;6.50;;;6.10;99.90;;;;;;5086708;28;20839;-57
2021/12/22 09:38:06;;;;;;;6.63;5.93;;;6.10;99.90;;;;;;5086950;28;20190;-56
2021/12/22 09:40:34;;;;;;;6.00;5.40;;;6.10;99.90;;;;;;5088201;28;20190;-57
2021/12/22 09:43:02;;;;;;;6.50;5.13;;;5.70;99.90;;;;;;5085906;28;20201;-57
2021/12/22 09:45:29;;;;;;;8.20;7.40;;;5.30;99.90;;;;;;5071388;28;20190;-57
2021/12/22 09:50:49;;;;;;;5.40;4.90;;;4.60;99.90;;;;;;5086942;28;20830;-57
2021/12/22 09:53:20;;;;;;;5.43;4.93;;;4.80;99.90;;;;;;5075294;28;20200;-57
2021/12/22 09:55:48;;;;;;;8.53;5.53;;;5.30;99.90;;;;;;5071342;28;20249;-58
2021/12/22 09:58:16;;;;;;;6.03;5.43;;;5.30;99.90;;;;;;5076360;28;20206;-58
2021/12/22 10:00:44;;;;;;;6.40;5.53;;;4.80;99.90;;;;;;5085236;28;20625;-57
2021/12/22 10:03:12;;;;;;;6.53;5.33;;;3.90;99.90;;;;;;5088200;28;20248;-58
2021/12/22 10:05:42;;;;;;;6.53;5.50;;;3.60;1.00;;;;;;5087205;28;20220;-58
2021/12/22 10:08:15;;;;;;;6.80;5.83;;;3.80;1.00;;;;;;5063752;28;20210;-57
2021/12/22 10:10:47;;;;;;;7.07;6.10;;;4.50;1.00;;;;;;5102805;28;20190;-57
2021/12/22 10:13:17;;;;;;;8.03;6.63;;;5.10;99.90;;;;;;5086293;28;20195;-57
2021/12/22 10:15:44;;;;;;;8.67;6.97;;;5.00;99.90;;;;;;5084542;28;20225;-57
2021/12/22 10:18:16;;;;;;;8.63;7.23;;;5.40;99.90;;;;;;5077996;28;20202;-57
2021/12/22 10:20:46;;;;;;;8.80;7.33;;;5.40;99.90;;;;;;5085201;28;20206;-57
2021/12/22 10:23:29;;;;;;;8.57;6.47;;;5.50;99.90;;;;;;5085508;28;20201;-57
2021/12/22 10:26:02;;;;;;;6.97;6.10;;;5.80;99.90;;;;;;5101353;28;20194;-57
2021/12/22 10:28:43;;;;;;;6.07;5.40;;;6.20;99.90;;;;;;5080942;28;20275;-57
2021/12/22 10:31:11;;;;;;;6.27;5.27;;;6.40;99.90;;;;;;5083787;28;20588;-58
2021/12/22 10:33:40;;;;;;;8.53;5.00;;;6.70;99.90;;;;;;5084410;28;20721;-57
2021/12/22 10:36:20;;;;;;;7.13;5.33;;;6.20;99.90;;;;;;5088874;28;20214;-57
2021/12/22 10:38:59;;;;;;;7.63;5.30;;;5.60;99.90;;;;;;5075488;28;20690;-57
2021/12/22 10:41:29;;;;;;;5.37;4.87;;;5.80;99.90;;;;;;5079307;28;20222;-57
2021/12/22 10:43:57;;;;;;;20.70;11.63;;;6.70;99.90;;;;;;5077500;28;20744;-57
2021/12/22 10:46:26;;;;;;;8.07;5.40;;;6.90;99.90;;;;;;5081477;28;20195;-57
2021/12/22 10:49:28;;;;;;;6.57;5.07;;;7.00;99.90;;;;;;5082677;28;20222;-58
2021/12/22 10:52:01;;;;;;;7.10;5.47;;;8.00;99.90;;;;;;4999887;28;20580;-57
2021/12/22 10:54:39;;;;;;;6.53;5.40;;;8.20;99.90;;;;;;5063369;28;20229;-58
2021/12/22 10:57:10;;;;;;;19.77;11.57;;;8.30;99.90;;;;;;5071041;28;20818;-58
2021/12/22 10:59:47;;;;;;;9.13;6.07;;;8.10;99.90;;;;;;5064246;28;20206;-59
2021/12/22 11:02:25;;;;;;;7.57;5.70;;;8.80;99.90;;;;;;5082555;28;20821;-59
2021/12/22 11:04:53;;;;;;;8.30;5.47;;;8.50;99.90;;;;;;5069191;28;20215;-59
2021/12/22 11:07:27;;;;;;;8.23;5.43;;;8.20;99.90;;;;;;5081482;28;20860;-59
2021/12/22 11:09:55;;;;;;;7.80;5.63;;;9.10;99.90;;;;;;5079072;28;20726;-59
2021/12/22 11:12:36;;;;;;;7.83;5.23;;;9.40;99.90;;;;;;5085051;28;20210;-59
2021/12/22 11:15:05;;;;;;;5.20;4.70;;;10.40;99.90;;;;;;5081969;28;20186;-59
2021/12/22 11:17:38;;;;;;;8.03;5.23;;;11.20;99.90;;;;;;5093809;27;20198;-59
2021/12/22 11:20:06;;;;;;;9.90;5.43;;;11.80;99.90;;;;;;5079325;28;20218;-59
2021/12/22 11:23:04;;;;;;;7.27;5.30;;;10.90;99.90;;;;;;5081589;28;20202;-59
2021/12/22 11:25:31;;;;;;;8.77;4.57;;;10.30;99.90;;;;;;5081248;28;20203;-59
2021/12/22 11:27:59;;;;;;;5.30;4.17;;;10.70;99.90;;;;;;5080083;28;20594;-59
2021/12/22 11:30:27;;;;;;;7.27;3.90;;;10.90;99.90;;;;;;5082303;28;20765;-59
2021/12/22 11:32:55;;;;;;;4.50;3.75;;;11.30;99.90;;;;;;5081885;28;20229;-59
2021/12/22 11:35:23;;;;;;;6.80;4.03;;;11.30;99.90;;;;;;5076344;28;20238;-59
2021/12/22 11:37:50;;;;;;;10.67;4.70;;;10.10;99.90;;;;;;5065091;28;20268;-59
2021/12/22 11:40:18;;;;;;;5.53;4.50;;;8.80;99.90;;;;;;5081635;28;20194;-59
2021/12/22 11:42:45;;;;;;;7.93;4.50;;;8.80;99.90;;;;;;5083167;28;20246;-58
2021/12/22 11:45:21;;;;;;;4.70;4.20;;;9.30;99.90;;;;;;5083334;28;20194;-59
2021/12/22 11:47:51;;;;;;;6.27;4.47;;;9.30;99.90;;;;;;5083031;28;20200;-59
2021/12/22 11:50:26;;;;;;;5.27;4.07;;;7.50;99.90;;;;;;5081132;28;20716;-59
2021/12/22 11:52:53;;;;;;;6.93;4.30;;;6.70;99.90;;;;;;5064875;28;20194;-57
2021/12/22 11:55:36;;;;;;;4.63;4.17;;;6.30;99.90;;;;;;5096302;28;20222;-59
2021/12/22 11:58:19;;;;;;;5.10;4.30;;;6.50;99.90;;;;;;5081098;28;20218;-59
2021/12/22 12:00:57;;;;;;;6.37;4.23;;;7.10;99.90;;;;;;5083467;28;20198;-57
2021/12/22 12:03:36;;;;;;;5.27;4.63;;;7.90;99.90;;;;;;5080644;28;20200;-58
2021/12/22 12:06:11;;;;;;;6.03;4.30;;;7.40;99.90;;;;;;5070956;28;20202;-57
2021/12/22 12:08:55;;;;;;;5.27;4.50;;;6.90;99.90;;;;;;5067882;28;20855;-58
2021/12/22 12:11:56;;;;;;;7.17;4.90;;;6.30;1.00;;;;;;5066754;28;20194;-56
2021/12/22 12:14:33;;;;;;;7.50;5.57;;;5.30;1.00;;;;;;5066643;28;20195;-56
2021/12/22 12:23:27;;;;;;;22.57;20.17;;;5.40;1.00;;;;;;5078395;28;20195;-57
2021/12/22 12:26:03;;;;;;;7.53;5.80;;;5.30;1.00;;;;;;5078607;28;20217;-57
2021/12/22 12:28:43;;;;;;;6.17;5.57;;;5.10;1.00;;;;;;5081312;28;20521;-56
2021/12/22 12:31:10;;;;;;;8.07;7.27;;;4.70;1.00;;;;;;5080520;28;20233;-57
2021/12/22 12:33:44;;;;;;;7.47;6.60;;;3.90;99.90;;;;;;5063547;28;20281;-58
2021/12/22 12:36:13;;;;;;;8.27;6.57;;;3.80;99.90;;;;;;5082529;28;20238;-57
2021/12/22 12:38:40;;;;;;;8.53;6.67;;;3.90;99.90;;;;;;5080787;28;20212;-57
2021/12/22 12:41:15;;;;;;;7.03;6.33;;;3.90;99.90;;;;;;5082066;28;20684;-57
2021/12/22 12:46:19;;;;;;;14.37;11.23;;;3.70;99.90;;;;;;5078062;28;20723;-57
2021/12/22 12:48:55;;;;;;;6.93;6.23;;;3.70;99.90;;;;;;5081244;28;20225;-58
2021/12/22 12:51:29;;;;;;;9.53;6.13;;;3.40;99.90;;;;;;5080050;28;20209;-57
2021/12/22 12:54:03;;;;;;;8.33;7.00;;;3.10;99.90;;;;;;5081607;28;20209;-59
2021/12/22 12:56:41;;;;;;;9.13;7.97;;;3.00;1.00;;;;;;5078821;28;20211;-59
2021/12/22 12:59:29;;;;;;;9.67;7.90;;;3.00;1.00;;;;;;5081301;28;20214;-59
2021/12/22 13:02:00;;;;;;;10.40;7.37;;;2.80;1.00;;;;;;5078202;28;20210;-57
2021/12/22 13:04:36;;;;;;;8.17;7.00;;;2.80;1.00;;;;;;5081208;28;20194;-58
2021/12/22 13:07:07;;;;;;;9.53;7.53;;;2.70;1.00;;;;;;5095298;28;20359;-59
2021/12/22 13:09:47;;;;;;;7.00;6.30;;;2.40;1.00;;;;;;5080217;28;20612;-59
2021/12/22 13:18:14;;;;;;;9.17;7.03;;;2.40;1.00;;;;;;5074121;28;20205;-59
2021/12/22 13:20:41;;;;;;;8.77;7.00;;;2.00;1.00;;;;;;5073829;28;20271;-59
2021/12/22 13:23:15;;;;;;;11.10;8.30;;;1.80;1.00;;;;;;5079102;28;20198;-59
2021/12/22 13:25:45;;;;;;;10.80;8.60;;;1.70;15.30;;;;;;5080148;28;20244;-59
2021/12/22 13:28:35;;;;;;;12.40;8.40;;;1.60;61.00;;;;;;5078464;28;20194;-58